createdAt,value
2019-03-15T00:01:16.830Z,19.75
2019-03-15T00:03:48.312Z,19.00
2019-03-15T00:06:17.305Z,15.25
2019-03-15T00:08:46.526Z,20.50
2019-03-15T00:11:15.719Z,18.50
2019-03-15T00:13:44.818Z,18.00
2019-03-15T00:16:14.036Z,19.25
2019-03-15T00:18:43.026Z,23.25
2019-03-15T00:21:12.179Z,24.75
2019-03-15T00:23:41.273Z,17.75
2019-03-15T00:26:10.290Z,23.25
2019-03-15T00:28:41.455Z,17.50
2019-03-15T00:31:10.618Z,19.00
2019-03-15T00:33:39.629Z,15.75
2019-03-15T00:36:08.729Z,14.75
2019-03-15T00:38:37.931Z,20.00
2019-03-15T00:41:07.006Z,20.50
2019-03-15T00:43:36.123Z,17.50
2019-03-15T00:46:05.300Z,18.00
2019-03-15T00:48:34.478Z,15.00
2019-03-15T00:51:03.614Z,17.50
2019-03-15T00:53:32.757Z,21.00
2019-03-15T00:56:01.866Z,20.50
2019-03-15T00:58:33.291Z,18.00
2019-03-15T01:01:02.386Z,17.00
2019-03-15T01:03:31.429Z,16.50
2019-03-15T01:06:01.582Z,20.50
2019-03-15T01:08:30.693Z,14.50
2019-03-15T01:10:59.688Z,17.50
2019-03-15T01:13:28.743Z,13.75
2019-03-15T01:15:57.767Z,17.00
2019-03-15T01:18:28.051Z,21.50
2019-03-15T01:20:57.140Z,20.00
2019-03-15T01:23:26.966Z,16.00
2019-03-15T01:25:55.991Z,20.50
2019-03-15T01:28:24.987Z,21.75
2019-03-15T01:30:54.047Z,19.50
2019-03-15T01:33:23.143Z,19.75
2019-03-15T01:35:52.246Z,23.25
2019-03-15T01:38:21.255Z,22.50
2019-03-15T01:40:50.376Z,20.00
2019-03-15T01:43:19.483Z,22.00
2019-03-15T01:45:48.514Z,16.75
2019-03-15T01:48:17.630Z,18.75
2019-03-15T01:50:46.647Z,15.75
2019-03-15T01:53:15.640Z,19.75
2019-03-15T01:55:44.740Z,20.75
2019-03-15T01:58:13.916Z,17.25
2019-03-15T02:00:43.037Z,20.25
2019-03-15T02:03:12.024Z,21.75
2019-03-15T02:05:41.170Z,17.75
2019-03-15T02:08:10.209Z,19.25
2019-03-15T02:10:39.199Z,23.75
2019-03-15T02:13:08.193Z,13.75
2019-03-15T02:15:37.207Z,22.00
2019-03-15T02:18:06.392Z,21.00
2019-03-15T02:20:35.383Z,22.00
2019-03-15T02:23:04.401Z,25.50
2019-03-15T02:25:33.566Z,18.50
2019-03-15T02:28:02.545Z,19.50
2019-03-15T02:30:31.728Z,24.50
2019-03-15T02:33:00.724Z,22.00
2019-03-15T02:35:29.730Z,27.50
2019-03-15T02:38:00.269Z,21.00
2019-03-15T02:40:29.463Z,20.00
2019-03-15T02:42:58.590Z,16.25
2019-03-15T02:45:27.689Z,18.00
2019-03-15T02:47:56.697Z,17.75
2019-03-15T02:50:25.759Z,16.50
2019-03-15T02:52:54.832Z,15.25
2019-03-15T02:55:23.934Z,20.00
2019-03-15T02:57:53.069Z,18.00
2019-03-15T03:00:22.150Z,21.00
2019-03-15T03:02:51.192Z,19.25
2019-03-15T03:05:20.264Z,20.25
2019-03-15T03:07:49.417Z,22.50
2019-03-15T03:10:18.535Z,19.00
2019-03-15T03:12:47.750Z,21.75
2019-03-15T03:15:16.874Z,22.00
2019-03-15T03:17:48.365Z,28.50
2019-03-15T03:20:17.523Z,20.25
2019-03-15T03:22:46.683Z,18.00
2019-03-15T03:25:17.230Z,20.50
2019-03-15T03:27:47.621Z,25.75
2019-03-15T03:30:17.439Z,32.75
2019-03-15T03:32:46.550Z,20.25
2019-03-15T03:35:15.642Z,14.00
2019-03-15T03:37:45.326Z,19.25
2019-03-15T03:40:14.762Z,17.00
2019-03-15T03:42:43.876Z,16.25
2019-03-15T03:45:13.001Z,19.50
2019-03-15T03:47:42.054Z,21.00
2019-03-15T03:50:11.652Z,27.75
2019-03-15T03:52:41.989Z,23.75
2019-03-15T03:55:11.353Z,23.50
2019-03-15T03:57:40.366Z,19.75
2019-03-15T04:00:09.858Z,23.25
2019-03-15T04:02:39.016Z,20.50
2019-03-15T04:05:08.178Z,21.25
2019-03-15T04:07:37.359Z,23.00
2019-03-15T04:10:06.822Z,25.25
2019-03-15T04:12:35.995Z,17.75
2019-03-15T04:15:05.502Z,24.25
2019-03-15T04:17:34.516Z,23.75
2019-03-15T04:20:05.271Z,29.50
2019-03-15T04:22:34.380Z,22.75
2019-03-15T04:25:07.070Z,24.50
2019-03-15T04:27:35.294Z,23.75
2019-03-15T04:30:04.729Z,28.50
2019-03-15T04:32:34.290Z,25.75
2019-03-15T04:35:04.720Z,27.25
2019-03-15T04:37:33.859Z,24.75
2019-03-15T04:40:02.992Z,19.75
2019-03-15T04:42:32.016Z,21.75
2019-03-15T04:45:01.140Z,18.25
2019-03-15T04:47:30.157Z,24.25
2019-03-15T04:49:59.159Z,18.50
2019-03-15T04:52:28.254Z,19.75
2019-03-15T04:54:57.288Z,21.75
2019-03-15T04:57:28.705Z,25.00
2019-03-15T04:59:57.725Z,24.25
2019-03-15T05:02:26.904Z,26.25
2019-03-15T05:04:55.903Z,28.75
2019-03-15T05:07:24.931Z,20.25
2019-03-15T05:09:54.023Z,30.75
2019-03-15T05:12:25.958Z,32.50
2019-03-15T05:14:54.959Z,21.25
2019-03-15T05:17:24.043Z,25.75
2019-03-15T05:19:53.055Z,25.25
2019-03-15T05:22:22.104Z,24.00
2019-03-15T05:24:51.171Z,20.75
2019-03-15T05:27:20.186Z,24.75
2019-03-15T05:29:49.202Z,25.75
2019-03-15T05:32:18.184Z,25.25
2019-03-15T05:34:47.180Z,24.75
2019-03-15T05:37:16.240Z,20.00
2019-03-15T05:39:45.257Z,34.75
2019-03-15T05:42:14.228Z,27.25
2019-03-15T05:44:43.250Z,21.75
2019-03-15T05:47:12.212Z,26.50
2019-03-15T05:49:41.204Z,30.25
2019-03-15T05:52:10.300Z,27.25
2019-03-15T05:54:39.267Z,27.25
2019-03-15T05:57:08.297Z,29.00
2019-03-15T05:59:37.289Z,24.75
2019-03-15T06:02:06.350Z,24.75
2019-03-15T06:04:35.337Z,23.25
2019-03-15T06:07:04.421Z,21.25
2019-03-15T06:09:33.393Z,22.00
2019-03-15T06:12:02.481Z,31.50
2019-03-15T06:14:31.503Z,26.50
2019-03-15T06:17:00.503Z,18.00
2019-03-15T06:19:29.571Z,21.00
2019-03-15T06:21:58.652Z,23.00
2019-03-15T06:24:27.679Z,17.50
2019-03-15T06:26:56.758Z,21.50
2019-03-15T06:29:25.773Z,18.00
2019-03-15T06:31:54.809Z,19.00
2019-03-15T06:34:24.878Z,26.00
2019-03-15T06:36:53.931Z,22.50
2019-03-15T06:39:22.933Z,32.00
2019-03-15T06:41:51.949Z,32.50
2019-03-15T06:44:20.953Z,25.00
2019-03-15T06:46:49.942Z,33.00
2019-03-15T06:49:19.024Z,35.50
2019-03-15T06:51:48.042Z,35.00
2019-03-15T06:54:17.047Z,38.50
2019-03-15T06:56:46.119Z,33.00
2019-03-15T06:59:17.158Z,31.50
2019-03-15T07:01:46.215Z,32.00
2019-03-15T07:04:15.288Z,32.00
2019-03-15T07:06:44.361Z,37.50
2019-03-15T07:09:13.620Z,33.00
2019-03-15T07:11:44.257Z,37.50
2019-03-15T07:14:13.377Z,43.00
2019-03-15T07:16:42.453Z,49.00
2019-03-15T07:19:11.677Z,52.00
2019-03-15T07:21:40.698Z,37.50
2019-03-15T07:24:09.698Z,48.00
2019-03-15T07:26:38.709Z,51.00
2019-03-15T07:29:07.742Z,57.50
2019-03-15T07:31:36.836Z,47.50
2019-03-15T07:34:05.912Z,57.50
2019-03-15T07:36:37.229Z,52.00
2019-03-15T07:39:07.463Z,55.25
2019-03-15T07:41:36.597Z,50.00
2019-03-15T07:44:05.808Z,61.25
2019-03-15T07:46:34.898Z,45.50
2019-03-15T07:49:04.044Z,57.25
2019-03-15T07:51:34.272Z,56.75
2019-03-15T07:54:03.423Z,53.75
2019-03-15T07:56:32.595Z,65.75
2019-03-15T07:59:01.722Z,55.25
2019-03-15T08:01:30.772Z,69.25
2019-03-15T08:03:59.847Z,57.75
2019-03-15T08:06:34.811Z,71.00
2019-03-15T08:08:59.704Z,54.00
2019-03-15T08:11:28.725Z,56.75
2019-03-15T08:13:57.738Z,57.00
2019-03-15T08:16:26.801Z,51.75
2019-03-15T08:18:55.866Z,58.00
2019-03-15T08:21:24.955Z,47.25
2019-03-15T08:23:54.032Z,44.75
2019-03-15T08:26:23.046Z,47.50
2019-03-15T08:28:52.035Z,44.50
2019-03-15T08:31:23.266Z,44.50
2019-03-15T08:33:51.797Z,44.50
2019-03-15T08:36:20.793Z,37.25
2019-03-15T08:38:49.852Z,39.75
2019-03-15T08:41:18.919Z,38.50
2019-03-15T08:43:48.726Z,50.25
2019-03-15T08:46:17.738Z,46.00
2019-03-15T08:48:46.746Z,43.50
2019-03-15T08:51:15.772Z,29.50
2019-03-15T08:53:44.830Z,37.25
2019-03-15T08:56:14.693Z,26.25
2019-03-15T08:58:44.026Z,25.50
2019-03-15T09:01:13.276Z,30.25
2019-03-15T09:03:42.391Z,25.00
2019-03-15T09:06:11.373Z,26.00
2019-03-15T09:08:40.460Z,25.50
2019-03-15T09:11:09.570Z,24.50
2019-03-15T09:13:38.753Z,26.75
2019-03-15T09:16:07.734Z,25.00
2019-03-15T09:18:39.204Z,26.00
2019-03-15T09:21:08.447Z,21.75
2019-03-15T09:23:37.478Z,30.75
2019-03-15T09:26:10.053Z,22.25
2019-03-15T09:28:37.622Z,22.50
2019-03-15T09:31:07.660Z,29.75
2019-03-15T09:33:36.955Z,19.00
2019-03-15T09:36:06.138Z,22.25
2019-03-15T09:38:35.265Z,22.75
2019-03-15T09:41:04.470Z,18.75
2019-03-15T09:43:33.645Z,19.25
2019-03-15T09:46:03.777Z,20.50
2019-03-15T09:48:32.842Z,22.25
2019-03-15T09:51:01.848Z,24.25
2019-03-15T09:53:30.849Z,18.50
2019-03-15T09:55:59.857Z,18.75
2019-03-15T09:58:28.920Z,23.50
2019-03-15T10:00:58.444Z,21.50
2019-03-15T10:03:27.769Z,28.75
2019-03-15T10:05:56.834Z,21.75
2019-03-15T10:08:25.994Z,18.25
2019-03-15T10:10:55.081Z,24.00
2019-03-15T10:13:24.167Z,17.25
2019-03-15T10:15:55.848Z,16.75
2019-03-15T10:18:25.029Z,29.00
2019-03-15T10:20:54.143Z,19.50
2019-03-15T10:23:23.155Z,20.25
2019-03-15T10:25:56.086Z,23.50
2019-03-15T10:28:25.321Z,19.75
2019-03-15T10:30:54.512Z,17.00
2019-03-15T10:33:23.673Z,15.50
2019-03-15T10:35:52.775Z,15.00
2019-03-15T10:38:21.967Z,19.75
2019-03-15T10:40:51.034Z,15.25
2019-03-15T10:43:20.025Z,19.75
2019-03-15T10:45:49.117Z,12.00
2019-03-15T10:48:25.104Z,20.25
2019-03-15T10:50:48.934Z,25.75
2019-03-15T10:53:18.002Z,23.75
2019-03-15T10:55:59.151Z,20.25
2019-03-15T10:58:17.815Z,17.75
2019-03-15T11:00:46.969Z,27.75
2019-03-15T11:03:15.991Z,24.50
2019-03-15T11:05:45.096Z,18.25
2019-03-15T11:08:14.267Z,27.00
2019-03-15T11:10:43.344Z,19.75
2019-03-15T11:13:12.469Z,23.75
2019-03-15T11:15:41.728Z,18.00
2019-03-15T11:18:10.845Z,22.00
2019-03-15T11:20:39.874Z,18.75
2019-03-15T11:23:08.939Z,18.25
2019-03-15T11:25:38.074Z,27.00
2019-03-15T11:28:07.110Z,21.00
2019-03-15T11:30:36.607Z,20.00
2019-03-15T11:33:05.596Z,21.75
2019-03-15T11:35:34.715Z,18.75
2019-03-15T11:38:03.939Z,30.25
2019-03-15T11:40:33.063Z,21.00
2019-03-15T11:43:02.653Z,23.75
2019-03-15T11:45:31.834Z,19.75
2019-03-15T11:48:04.073Z,25.00
2019-03-15T11:50:31.998Z,17.75
2019-03-15T11:53:01.036Z,18.50
2019-03-15T11:55:31.207Z,27.50
2019-03-15T11:58:00.305Z,21.50
2019-03-15T12:00:29.539Z,21.00
2019-03-15T12:02:58.721Z,23.75
2019-03-15T12:05:27.949Z,24.50
2019-03-15T12:07:57.107Z,19.50
2019-03-15T12:10:26.116Z,20.75
2019-03-15T12:12:55.181Z,13.75
2019-03-15T12:15:24.214Z,20.75
2019-03-15T12:17:53.353Z,22.00
2019-03-15T12:20:22.434Z,19.00
2019-03-15T12:22:51.551Z,23.00
2019-03-15T12:25:20.712Z,28.75
2019-03-15T12:27:52.221Z,19.25
2019-03-15T12:30:21.415Z,23.50
2019-03-15T12:32:50.613Z,21.25
2019-03-15T12:35:19.776Z,20.75
2019-03-15T12:37:48.975Z,20.75
2019-03-15T12:40:18.430Z,14.00
2019-03-15T12:42:47.544Z,20.75
2019-03-15T12:45:16.599Z,18.00
2019-03-15T12:47:45.682Z,20.75
2019-03-15T12:50:15.359Z,22.00
2019-03-15T12:52:48.686Z,18.00
2019-03-15T12:55:15.345Z,17.75
2019-03-15T12:57:44.402Z,15.50
2019-03-15T13:00:14.022Z,20.75
2019-03-15T13:02:43.015Z,19.50
2019-03-15T13:05:12.171Z,17.25
2019-03-15T13:07:44.348Z,18.00
2019-03-15T13:10:13.618Z,16.25
2019-03-15T13:12:42.660Z,21.50
2019-03-15T13:15:12.858Z,17.25
2019-03-15T13:17:43.142Z,18.75
2019-03-15T13:20:12.810Z,22.50
2019-03-15T13:22:41.908Z,18.00
2019-03-15T13:25:11.054Z,20.75
2019-03-15T13:27:40.133Z,17.50
2019-03-15T13:30:09.664Z,16.00
2019-03-15T13:32:38.756Z,19.50
2019-03-15T13:35:08.042Z,17.00
2019-03-15T13:37:37.050Z,17.75
2019-03-15T13:40:06.704Z,17.25
2019-03-15T13:42:35.735Z,17.00
2019-03-15T13:45:05.758Z,23.00
2019-03-15T13:47:34.855Z,22.00
2019-03-15T13:50:04.206Z,18.75
2019-03-15T13:52:33.201Z,17.50
2019-03-15T13:55:02.337Z,19.25
2019-03-15T13:57:31.302Z,17.00
2019-03-15T14:00:00.412Z,15.50
2019-03-15T14:02:29.399Z,14.00
2019-03-15T14:04:58.435Z,18.75
2019-03-15T14:07:27.446Z,16.75
2019-03-15T14:09:56.490Z,24.25
2019-03-15T14:12:25.512Z,24.75
2019-03-15T14:14:54.609Z,17.25
2019-03-15T14:17:23.682Z,20.75
2019-03-15T14:19:52.748Z,33.25
2019-03-15T14:22:21.814Z,20.25
2019-03-15T14:24:50.865Z,27.75
2019-03-15T14:27:23.012Z,27.25
2019-03-15T14:29:50.599Z,23.50
2019-03-15T14:32:19.716Z,22.25
2019-03-15T14:34:48.738Z,23.25
2019-03-15T14:37:17.811Z,19.25
2019-03-15T14:39:46.900Z,22.00
2019-03-15T14:42:17.246Z,27.25
2019-03-15T14:44:46.274Z,24.50
2019-03-15T14:47:15.259Z,25.25
2019-03-15T14:49:44.392Z,20.25
2019-03-15T14:52:13.472Z,24.00
2019-03-15T14:54:42.607Z,22.00
2019-03-15T14:57:11.716Z,23.75
2019-03-15T14:59:40.848Z,27.25
2019-03-15T15:02:10.133Z,24.75
2019-03-15T15:04:39.127Z,22.25
2019-03-15T15:07:08.342Z,23.00
2019-03-15T15:09:37.383Z,26.75
2019-03-15T15:12:06.492Z,19.00
2019-03-15T15:14:35.806Z,27.25
2019-03-15T15:17:05.059Z,26.25
2019-03-15T15:19:34.132Z,26.75
2019-03-15T15:22:04.203Z,27.50
2019-03-15T15:24:33.313Z,19.00
2019-03-15T15:27:02.347Z,23.25
2019-03-15T15:29:31.500Z,24.00
2019-03-15T15:32:00.581Z,20.75
2019-03-15T15:34:29.590Z,23.25
2019-03-15T15:36:58.833Z,28.25
2019-03-15T15:39:27.863Z,32.25
2019-03-15T15:41:58.565Z,20.75
2019-03-15T15:44:27.813Z,41.50
2019-03-15T15:46:57.201Z,29.50
2019-03-15T15:49:26.414Z,20.75
2019-03-15T15:51:55.441Z,26.75
2019-03-15T15:54:24.512Z,24.75
2019-03-15T15:56:53.502Z,20.00
2019-03-15T15:59:22.482Z,23.75
2019-03-15T16:01:51.529Z,26.00
2019-03-15T16:04:20.592Z,28.50
2019-03-15T16:06:49.657Z,19.00
2019-03-15T16:11:52.902Z,25.75
2019-03-15T16:14:21.878Z,23.75
2019-03-15T16:16:50.864Z,19.00
2019-03-15T16:19:19.905Z,22.75
2019-03-15T16:21:49.014Z,23.75
2019-03-15T16:24:17.983Z,23.00
2019-03-15T16:26:47.019Z,24.50
2019-03-15T16:29:16.051Z,26.00
2019-03-15T16:31:45.108Z,18.25
2019-03-15T16:34:14.138Z,16.50
2019-03-15T16:36:43.123Z,32.75
2019-03-15T16:39:12.160Z,29.00
2019-03-15T16:41:41.278Z,22.00
2019-03-15T16:44:10.259Z,27.25
2019-03-15T16:46:39.292Z,21.50
2019-03-15T16:49:08.360Z,22.75
2019-03-15T16:51:37.416Z,22.00
2019-03-15T16:54:06.494Z,25.50
2019-03-15T16:56:35.484Z,20.75
2019-03-15T16:59:04.576Z,19.75
2019-03-15T17:01:33.587Z,23.50
2019-03-15T17:04:02.560Z,29.00
2019-03-15T17:06:31.622Z,22.00
2019-03-15T17:09:00.691Z,23.00
2019-03-15T17:11:29.773Z,22.75
2019-03-15T17:13:58.780Z,21.75
2019-03-15T17:16:28.003Z,23.50
2019-03-15T17:18:56.998Z,18.25
2019-03-15T17:21:25.991Z,22.00
2019-03-15T17:23:55.087Z,19.50
2019-03-15T17:26:24.060Z,21.75
2019-03-15T17:28:58.615Z,19.50
2019-03-15T17:31:23.908Z,18.25
2019-03-15T17:33:52.988Z,18.50
2019-03-15T17:36:21.971Z,18.25
2019-03-15T17:38:51.102Z,18.75
2019-03-15T17:41:20.070Z,18.00
2019-03-15T17:43:49.065Z,22.00
2019-03-15T17:46:18.064Z,16.00
2019-03-15T17:48:47.054Z,17.75
2019-03-15T17:51:16.166Z,20.75
2019-03-15T17:53:45.299Z,20.50
2019-03-15T17:56:14.321Z,16.75
2019-03-15T17:58:43.509Z,20.00
2019-03-15T18:01:12.773Z,22.50
2019-03-15T18:03:41.966Z,20.00
2019-03-15T18:06:10.992Z,31.00
2019-03-15T18:08:40.165Z,15.50
2019-03-15T18:11:10.973Z,18.50
2019-03-15T18:13:39.984Z,17.25
2019-03-15T18:16:09.118Z,17.00
2019-03-15T18:18:38.273Z,21.50
2019-03-15T18:21:07.379Z,16.00
2019-03-15T18:23:36.391Z,20.25
2019-03-15T18:26:05.699Z,21.50
2019-03-15T18:28:34.819Z,17.00
2019-03-15T18:31:03.994Z,20.25
2019-03-15T18:33:33.010Z,21.00
2019-03-15T18:36:02.023Z,21.25
2019-03-15T18:38:31.108Z,16.00
2019-03-15T18:41:01.065Z,19.50
2019-03-15T18:43:30.180Z,15.00
2019-03-15T18:45:59.248Z,19.00
2019-03-15T18:48:28.283Z,18.50
2019-03-15T18:50:57.384Z,20.00
2019-03-15T18:53:26.393Z,24.50
2019-03-15T18:55:58.540Z,17.00
2019-03-15T18:58:27.780Z,19.00
2019-03-15T19:00:56.862Z,21.00
2019-03-15T19:03:26.082Z,19.50
2019-03-15T19:05:55.218Z,17.00
2019-03-15T19:08:24.241Z,18.00
2019-03-15T19:10:53.403Z,20.50
2019-03-15T19:13:22.387Z,25.00
2019-03-15T19:15:51.469Z,15.50
2019-03-15T19:18:20.680Z,18.00
2019-03-15T19:20:49.786Z,19.00
2019-03-15T19:23:19.081Z,19.25
2019-03-15T19:25:48.082Z,17.25
2019-03-15T19:28:17.200Z,21.00
2019-03-15T19:30:46.332Z,41.50
2019-03-15T19:33:18.272Z,24.00
2019-03-15T19:35:47.345Z,17.00
2019-03-15T19:38:16.505Z,21.25
2019-03-15T19:40:45.505Z,23.00
2019-03-15T19:43:14.569Z,27.00
2019-03-15T19:45:43.540Z,23.25
2019-03-15T19:48:12.671Z,28.00
2019-03-15T19:50:41.669Z,21.00
2019-03-15T19:53:10.864Z,19.75
2019-03-15T19:55:39.974Z,24.00
2019-03-15T19:58:09.043Z,26.25
2019-03-15T20:00:38.072Z,29.75
2019-03-15T20:03:07.156Z,30.50
2019-03-15T20:05:36.357Z,23.75
2019-03-15T20:08:05.431Z,24.75
2019-03-15T20:10:34.574Z,24.25
2019-03-15T20:13:03.650Z,25.00
2019-03-15T20:15:32.644Z,24.75
2019-03-15T20:18:01.669Z,19.50
2019-03-15T20:20:30.783Z,31.75
2019-03-15T20:22:59.812Z,22.25
2019-03-15T20:25:28.832Z,19.00
2019-03-15T20:27:57.910Z,23.50
2019-03-15T20:30:27.216Z,23.75
2019-03-15T20:32:56.287Z,18.75
2019-03-15T20:35:25.328Z,16.75
2019-03-15T20:37:54.352Z,25.25
2019-03-15T20:40:23.354Z,23.00
2019-03-15T20:42:52.431Z,18.50
2019-03-15T20:45:21.667Z,17.75
2019-03-15T20:47:50.729Z,19.75
2019-03-15T20:50:19.850Z,27.50
2019-03-15T20:52:51.346Z,22.50
2019-03-15T20:55:20.516Z,29.25
2019-03-15T20:57:49.557Z,26.25
2019-03-15T21:00:19.008Z,21.00
2019-03-15T21:02:49.458Z,20.25
2019-03-15T21:05:25.849Z,26.25
2019-03-15T21:07:54.837Z,17.00
2019-03-15T21:10:23.855Z,21.50
2019-03-15T21:12:52.864Z,29.75
2019-03-15T21:15:21.861Z,24.50
2019-03-15T21:17:50.930Z,25.00
2019-03-15T21:20:22.622Z,37.75
2019-03-15T21:22:50.816Z,31.75
2019-03-15T21:25:19.825Z,30.75
2019-03-15T21:27:54.170Z,42.50
2019-03-15T21:30:19.659Z,32.25
2019-03-15T21:32:49.894Z,30.50
2019-03-15T21:35:19.289Z,29.75
2019-03-15T21:37:49.872Z,37.00
2019-03-15T21:40:18.961Z,25.75
2019-03-15T21:42:47.982Z,31.25
2019-03-15T21:45:17.146Z,34.75
2019-03-15T21:47:48.563Z,25.00
2019-03-15T21:50:17.655Z,28.75
2019-03-15T21:52:46.959Z,29.50
2019-03-15T21:55:16.125Z,29.50
2019-03-15T21:57:45.212Z,31.00
2019-03-15T22:00:14.576Z,25.00
2019-03-15T22:02:43.821Z,29.00
2019-03-15T22:05:12.893Z,34.75
2019-03-15T22:07:41.989Z,29.50
2019-03-15T22:10:11.689Z,25.25
2019-03-15T22:12:40.785Z,23.50
2019-03-15T22:15:10.180Z,32.00
2019-03-15T22:17:39.402Z,27.50
2019-03-15T22:20:09.530Z,24.25
2019-03-15T22:22:41.280Z,24.50
2019-03-15T22:25:10.611Z,27.00
2019-03-15T22:27:39.830Z,29.00
2019-03-15T22:30:09.097Z,32.50
2019-03-15T22:32:38.288Z,22.75
2019-03-15T22:35:07.586Z,23.00
2019-03-15T22:37:36.854Z,22.75
2019-03-15T22:40:06.556Z,21.50
2019-03-15T22:42:35.574Z,16.50
2019-03-15T22:45:05.019Z,19.25
2019-03-15T22:47:34.522Z,18.25
2019-03-15T22:50:05.077Z,20.00
2019-03-15T22:52:34.142Z,23.75
2019-03-15T22:55:03.228Z,19.00
2019-03-15T22:57:32.301Z,15.25
2019-03-15T23:00:03.033Z,13.00
2019-03-15T23:02:32.113Z,19.00
2019-03-15T23:05:01.138Z,22.50
2019-03-15T23:07:30.187Z,17.50
2019-03-15T23:09:59.186Z,16.75
2019-03-15T23:12:28.449Z,15.00
2019-03-15T23:14:57.457Z,15.50
2019-03-15T23:17:26.467Z,19.50
2019-03-15T23:19:55.508Z,15.00
2019-03-15T23:22:24.508Z,15.75
2019-03-15T23:24:53.604Z,16.50
2019-03-15T23:27:22.622Z,21.00
2019-03-15T23:29:51.613Z,15.25
2019-03-15T23:32:20.645Z,15.75
2019-03-15T23:34:49.677Z,15.00
2019-03-15T23:37:18.693Z,16.25
2019-03-15T23:39:47.682Z,17.00
2019-03-15T23:42:16.710Z,15.75
2019-03-15T23:44:45.762Z,17.50
2019-03-15T23:47:16.871Z,17.50
2019-03-15T23:49:48.060Z,13.00
2019-03-15T23:52:18.126Z,11.00
2019-03-15T23:54:47.409Z,15.75
2019-03-15T23:57:16.403Z,18.50
2019-03-15T23:59:47.432Z,20.00
